createdAt,value
2019-03-01T00:01:15.227Z,32.93
2019-03-01T00:03:44.750Z,32.50
2019-03-01T00:06:15.498Z,32.73
2019-03-01T00:09:03.679Z,31.17
2019-03-01T00:11:38.608Z,30.65
2019-03-01T00:14:15.128Z,30.25
2019-03-01T00:17:01.274Z,28.90
2019-03-01T00:19:50.018Z,28.80
2019-03-01T00:22:20.806Z,27.07
2019-03-01T00:25:08.280Z,29.90
2019-03-01T00:27:38.994Z,30.32
2019-03-01T00:30:18.766Z,27.85
2019-03-01T00:32:52.133Z,27.02
2019-03-01T00:35:39.840Z,26.23
2019-03-01T00:38:28.873Z,28.17
2019-03-01T00:40:59.578Z,27.20
2019-03-01T00:43:45.610Z,26.00
2019-03-01T00:46:14.858Z,25.05
2019-03-01T00:48:44.142Z,27.40
2019-03-01T00:51:13.409Z,24.30
2019-03-01T00:53:42.658Z,23.30
2019-03-01T00:56:11.944Z,23.32
2019-03-01T00:58:41.245Z,22.98
2019-03-01T01:01:10.551Z,22.00
2019-03-01T01:03:39.848Z,22.82
2019-03-01T01:06:09.155Z,22.42
2019-03-01T01:08:38.340Z,21.42
2019-03-01T01:11:07.608Z,20.77
2019-03-01T01:13:36.882Z,20.30
2019-03-01T01:16:06.167Z,17.90
2019-03-01T01:18:35.297Z,16.65
2019-03-01T01:21:04.539Z,16.23
2019-03-01T01:23:33.844Z,17.10
2019-03-01T01:26:03.138Z,16.95
2019-03-01T01:28:32.450Z,17.57
2019-03-01T01:31:01.742Z,15.58
2019-03-01T01:33:30.994Z,17.17
2019-03-01T01:36:00.226Z,16.23
2019-03-01T01:38:29.556Z,15.90
2019-03-01T01:40:58.806Z,15.80
2019-03-01T01:43:28.093Z,16.23
2019-03-01T01:45:57.271Z,15.88
2019-03-01T01:48:26.541Z,18.05
2019-03-01T01:50:55.749Z,14.85
2019-03-01T01:53:25.003Z,16.10
2019-03-01T01:55:54.349Z,16.77
2019-03-01T01:58:23.589Z,14.60
2019-03-01T02:00:52.896Z,14.07
2019-03-01T02:03:22.101Z,14.87
2019-03-01T02:05:51.414Z,12.18
2019-03-01T02:08:21.709Z,12.98
2019-03-01T02:10:51.041Z,12.37
2019-03-01T02:13:21.307Z,12.65
2019-03-01T02:15:50.643Z,12.93
2019-03-01T02:18:19.937Z,11.00
2019-03-01T02:20:49.155Z,12.15
2019-03-01T02:23:18.433Z,11.48
2019-03-01T02:25:47.742Z,10.60
2019-03-01T02:28:17.058Z,12.25
2019-03-01T02:30:48.147Z,12.50
2019-03-01T02:33:17.404Z,12.07
2019-03-01T02:35:46.716Z,11.95
2019-03-01T02:38:16.036Z,11.25
2019-03-01T02:40:45.283Z,11.65
2019-03-01T02:43:14.615Z,11.00
2019-03-01T02:45:43.912Z,10.63
2019-03-01T02:48:13.162Z,11.78
2019-03-01T02:50:42.474Z,11.43
2019-03-01T02:53:11.692Z,12.93
2019-03-01T02:55:42.042Z,12.68
2019-03-01T02:58:11.250Z,11.50
2019-03-01T03:00:40.478Z,11.88
2019-03-01T03:03:10.798Z,11.88
2019-03-01T03:05:41.682Z,11.33
2019-03-01T03:08:11.374Z,11.70
2019-03-01T03:10:40.701Z,12.03
2019-03-01T03:13:10.001Z,12.47
2019-03-01T03:15:40.906Z,11.97
2019-03-01T03:18:10.201Z,11.95
2019-03-01T03:20:39.483Z,11.90
2019-03-01T03:23:08.937Z,11.68
2019-03-01T03:25:38.235Z,11.48
2019-03-01T03:28:07.436Z,11.15
2019-03-01T03:30:36.780Z,11.25
2019-03-01T03:33:06.236Z,10.88
2019-03-01T03:35:35.509Z,10.43
2019-03-01T03:38:04.840Z,10.90
2019-03-01T03:40:35.061Z,11.60
2019-03-01T03:43:04.375Z,12.37
2019-03-01T03:45:33.660Z,10.78
2019-03-01T03:48:02.916Z,11.63
2019-03-01T03:50:33.295Z,11.57
2019-03-01T03:53:02.536Z,10.13
2019-03-01T03:55:32.815Z,11.00
2019-03-01T03:58:02.055Z,8.30
2019-03-01T04:00:31.342Z,9.30
2019-03-01T04:03:00.617Z,8.43
2019-03-01T04:05:29.949Z,8.20
2019-03-01T04:07:59.244Z,8.15
2019-03-01T04:10:28.469Z,7.42
2019-03-01T04:12:57.827Z,7.20
2019-03-01T04:15:27.096Z,7.37
2019-03-01T04:17:56.390Z,7.72
2019-03-01T04:20:25.716Z,7.72
2019-03-01T04:22:54.910Z,8.68
2019-03-01T04:25:24.150Z,8.20
2019-03-01T04:27:53.594Z,7.03
2019-03-01T04:30:22.953Z,7.40
2019-03-01T04:32:52.244Z,7.50
2019-03-01T04:35:21.842Z,7.55
2019-03-01T04:37:51.092Z,8.15
2019-03-01T04:40:20.347Z,8.15
2019-03-01T04:42:49.608Z,8.35
2019-03-01T04:45:18.864Z,10.20
2019-03-01T04:47:48.164Z,8.43
2019-03-01T04:50:17.476Z,8.95
2019-03-01T04:52:46.731Z,9.53
2019-03-01T04:55:17.106Z,9.93
2019-03-01T04:57:46.343Z,9.40
2019-03-01T05:00:16.746Z,10.40
2019-03-01T05:02:45.998Z,11.70
2019-03-01T05:05:15.542Z,10.20
2019-03-01T05:07:44.873Z,11.15
2019-03-01T05:10:14.924Z,9.75
2019-03-01T05:12:44.259Z,9.95
2019-03-01T05:15:14.888Z,10.90
2019-03-01T05:17:44.182Z,12.13
2019-03-01T05:20:13.543Z,11.43
2019-03-01T05:22:42.755Z,11.55
2019-03-01T05:25:12.159Z,11.80
2019-03-01T05:27:41.469Z,13.20
2019-03-01T05:30:11.901Z,12.63
2019-03-01T05:32:41.228Z,12.65
2019-03-01T05:35:10.661Z,14.13
2019-03-01T05:37:39.943Z,15.03
2019-03-01T05:40:10.490Z,13.22
2019-03-01T05:42:39.859Z,13.43
2019-03-01T05:45:10.886Z,15.83
2019-03-01T05:47:40.228Z,15.83
2019-03-01T05:50:11.022Z,16.10
2019-03-01T05:52:40.386Z,14.55
2019-03-01T05:55:10.891Z,15.63
2019-03-01T05:57:58.518Z,14.83
2019-03-01T06:00:27.845Z,19.05
2019-03-01T06:03:07.722Z,18.15
2019-03-01T06:05:37.037Z,20.62
2019-03-01T06:08:13.688Z,17.10
2019-03-01T06:10:44.454Z,16.17
2019-03-01T06:13:15.268Z,17.65
2019-03-01T06:15:51.799Z,16.52
2019-03-01T06:18:39.033Z,17.02
2019-03-01T06:21:21.840Z,15.18
2019-03-01T06:23:52.463Z,16.37
2019-03-01T06:26:39.722Z,17.15
2019-03-01T06:29:10.430Z,20.32
2019-03-01T06:31:57.571Z,23.18
2019-03-01T06:34:44.903Z,18.52
2019-03-01T06:37:18.402Z,18.32
2019-03-01T06:39:50.766Z,18.27
2019-03-01T06:42:30.429Z,16.93
2019-03-01T06:45:17.579Z,22.37
2019-03-01T06:47:48.443Z,16.77
2019-03-01T06:50:18.942Z,19.70
2019-03-01T06:52:48.197Z,19.95
2019-03-01T06:55:27.725Z,19.85
2019-03-01T06:57:56.852Z,19.35
2019-03-01T07:00:27.874Z,18.52
2019-03-01T07:03:00.889Z,19.07
2019-03-01T07:05:30.223Z,20.40
2019-03-01T07:07:59.496Z,17.65
2019-03-01T07:10:28.706Z,18.07
2019-03-01T07:12:57.947Z,18.15
2019-03-01T07:15:27.238Z,16.57
2019-03-01T07:17:56.477Z,15.65
2019-03-01T07:20:25.771Z,16.77
2019-03-01T07:22:55.037Z,15.32
2019-03-01T07:25:25.311Z,22.05
2019-03-01T07:27:54.646Z,17.20
2019-03-01T07:30:23.965Z,16.10
2019-03-01T07:32:53.258Z,18.60
2019-03-01T07:35:22.581Z,16.52
2019-03-01T07:37:51.811Z,17.42
2019-03-01T07:40:21.146Z,14.07
2019-03-01T07:42:50.369Z,16.40
2019-03-01T07:45:19.550Z,15.03
2019-03-01T07:47:48.806Z,16.25
2019-03-01T07:50:17.903Z,15.70
2019-03-01T07:52:47.221Z,15.23
2019-03-01T07:55:16.514Z,15.70
2019-03-01T07:57:46.600Z,16.17
2019-03-01T08:00:17.077Z,15.25
2019-03-01T08:02:46.382Z,14.60
2019-03-01T08:05:16.509Z,15.60
2019-03-01T08:07:55.744Z,16.57
2019-03-01T08:10:22.442Z,16.02
2019-03-01T08:12:48.071Z,18.55
2019-03-01T08:15:18.017Z,19.90
2019-03-01T08:17:47.184Z,21.33
2019-03-01T08:20:17.207Z,22.48
2019-03-01T08:22:49.090Z,13.93
2019-03-01T08:25:22.549Z,12.73
2019-03-01T08:27:50.367Z,13.50
2019-03-01T08:30:19.284Z,12.10
2019-03-01T08:32:48.592Z,12.78
2019-03-01T08:35:18.277Z,13.50
2019-03-01T08:37:49.830Z,11.80
2019-03-01T08:40:18.562Z,13.08
2019-03-01T08:42:47.826Z,13.22
2019-03-01T08:45:17.838Z,13.03
2019-03-01T08:47:48.836Z,13.60
2019-03-01T08:50:18.110Z,13.65
2019-03-01T08:52:47.331Z,14.25
2019-03-01T08:55:17.860Z,13.00
2019-03-01T08:57:47.130Z,13.40
2019-03-01T09:00:17.901Z,15.60
2019-03-01T09:02:47.331Z,12.78
2019-03-01T09:05:16.550Z,11.90
2019-03-01T09:07:45.878Z,12.37
2019-03-01T09:10:16.208Z,12.15
2019-03-01T09:12:45.433Z,13.20
2019-03-01T09:15:15.346Z,12.80
2019-03-01T09:17:44.586Z,12.55
2019-03-01T09:20:14.616Z,11.05
2019-03-01T09:22:44.078Z,11.05
2019-03-01T09:25:14.303Z,10.43
2019-03-01T09:27:43.546Z,11.00
2019-03-01T09:30:17.065Z,9.98
2019-03-01T09:32:46.375Z,8.48
2019-03-01T09:35:34.993Z,8.10
2019-03-01T09:38:04.579Z,8.55
2019-03-01T09:40:36.670Z,8.30
2019-03-01T09:43:06.145Z,7.45
2019-03-01T09:45:36.454Z,8.25
2019-03-01T09:48:08.728Z,7.80
2019-03-01T09:50:38.332Z,8.08
2019-03-01T09:53:07.655Z,8.08
2019-03-01T09:55:37.596Z,8.20
2019-03-01T09:58:08.466Z,8.60
2019-03-01T10:00:55.948Z,8.48
2019-03-01T10:03:19.916Z,6.72
2019-03-01T10:05:49.055Z,7.10
2019-03-01T10:08:18.310Z,6.37
2019-03-01T10:10:47.544Z,7.72
2019-03-01T10:13:16.952Z,6.60
2019-03-01T10:15:46.102Z,7.40
2019-03-01T10:18:15.320Z,7.60
2019-03-01T10:20:44.538Z,6.15
2019-03-01T10:23:13.751Z,7.35
2019-03-01T10:25:43.004Z,7.65
2019-03-01T10:28:12.210Z,6.62
2019-03-01T10:30:41.446Z,7.12
2019-03-01T10:33:10.663Z,6.47
2019-03-01T10:35:39.883Z,7.40
2019-03-01T10:38:09.088Z,6.83
2019-03-01T10:40:38.279Z,7.10
2019-03-01T10:43:08.618Z,6.67
2019-03-01T10:45:37.739Z,6.22
2019-03-01T10:48:06.980Z,7.72
2019-03-01T10:50:36.191Z,7.65
2019-03-01T10:53:05.518Z,8.48
2019-03-01T10:55:34.774Z,8.25
2019-03-01T10:58:04.007Z,8.23
2019-03-01T11:00:33.228Z,8.40
2019-03-01T11:03:02.476Z,8.95
2019-03-01T11:05:31.692Z,8.08
2019-03-01T11:08:00.967Z,7.83
2019-03-01T11:10:31.405Z,9.03
2019-03-01T11:13:00.645Z,9.03
2019-03-01T11:15:29.867Z,8.95
2019-03-01T11:17:59.055Z,8.80
2019-03-01T11:20:28.275Z,8.73
2019-03-01T11:22:57.453Z,9.25
2019-03-01T11:25:26.707Z,7.75
2019-03-01T11:27:55.922Z,7.10
2019-03-01T11:30:26.625Z,7.30
2019-03-01T11:32:55.820Z,7.45
2019-03-01T11:35:25.011Z,7.75
2019-03-01T11:37:54.199Z,6.83
2019-03-01T11:40:27.682Z,7.35
2019-03-01T11:42:56.906Z,5.03
2019-03-01T11:45:26.062Z,3.83
2019-03-01T11:47:55.270Z,5.15
2019-03-01T11:50:24.919Z,4.12
2019-03-01T11:52:54.191Z,4.05
2019-03-01T11:55:23.401Z,4.65
2019-03-01T11:57:52.620Z,4.22
2019-03-01T12:00:23.471Z,4.00
2019-03-01T12:02:53.019Z,6.45
2019-03-01T12:05:22.183Z,9.43
2019-03-01T12:07:51.396Z,6.42
2019-03-01T12:10:21.529Z,5.65
2019-03-01T12:12:50.719Z,7.92
2019-03-01T12:15:20.043Z,7.28
2019-03-01T12:17:49.239Z,6.47
2019-03-01T12:20:22.295Z,6.90
2019-03-01T12:22:51.534Z,6.85
2019-03-01T12:25:20.724Z,5.55
2019-03-01T12:27:49.905Z,8.60
2019-03-01T12:30:19.834Z,7.22
2019-03-01T12:32:49.076Z,8.25
2019-03-01T12:35:18.291Z,7.65
2019-03-01T12:37:47.532Z,7.45
2019-03-01T12:40:18.311Z,7.55
2019-03-01T12:42:47.558Z,7.83
2019-03-01T12:45:16.782Z,7.70
2019-03-01T12:47:46.017Z,7.70
2019-03-01T12:50:15.404Z,7.37
2019-03-01T12:52:44.681Z,8.03
2019-03-01T12:55:29.889Z,8.18
2019-03-01T12:57:59.108Z,8.93
2019-03-01T13:00:34.843Z,8.68
2019-03-01T13:03:05.371Z,9.60
2019-03-01T13:05:34.915Z,8.23
2019-03-01T13:08:04.175Z,10.68
2019-03-01T13:10:36.681Z,13.68
2019-03-01T13:13:08.178Z,11.05
2019-03-01T13:15:36.617Z,8.43
2019-03-01T13:18:05.850Z,8.68
2019-03-01T13:20:37.303Z,8.75
2019-03-01T13:23:06.318Z,8.25
2019-03-01T13:25:35.542Z,9.00
2019-03-01T13:28:04.783Z,9.13
2019-03-01T13:30:35.788Z,10.35
2019-03-01T13:33:04.941Z,9.48
2019-03-01T13:35:34.194Z,9.55
2019-03-01T13:38:03.979Z,8.65
2019-03-01T13:40:33.345Z,8.05
2019-03-01T13:43:02.563Z,7.65
2019-03-01T13:45:31.775Z,8.10
2019-03-01T13:48:03.139Z,8.98
2019-03-01T13:50:31.777Z,8.90
2019-03-01T13:53:01.029Z,9.00
2019-03-01T13:55:30.265Z,9.35
2019-03-01T13:57:59.487Z,9.38
2019-03-01T14:00:28.648Z,8.28
2019-03-01T14:02:57.889Z,8.35
2019-03-01T14:05:27.091Z,11.38
2019-03-01T14:07:56.960Z,8.73
2019-03-01T14:10:31.105Z,7.78
2019-03-01T14:13:01.619Z,7.60
2019-03-01T14:15:30.865Z,6.90
2019-03-01T14:18:01.168Z,7.37
2019-03-01T14:20:30.851Z,7.10
2019-03-01T14:23:00.094Z,7.12
2019-03-01T14:25:29.275Z,7.47
2019-03-01T14:27:58.524Z,7.20
2019-03-01T14:30:30.257Z,7.05
2019-03-01T14:33:00.478Z,7.05
2019-03-01T14:35:29.776Z,6.67
2019-03-01T14:37:59.960Z,5.65
2019-03-01T14:40:29.175Z,4.20
2019-03-01T14:42:58.421Z,4.42
2019-03-01T14:45:34.704Z,4.55
2019-03-01T14:48:04.975Z,4.40
2019-03-01T14:50:34.834Z,5.28
2019-03-01T14:53:04.085Z,5.72
2019-03-01T14:55:37.729Z,6.30
2019-03-01T14:58:08.716Z,6.40
2019-03-01T15:00:49.648Z,6.90
2019-03-01T15:03:18.131Z,6.10
2019-03-01T15:05:47.930Z,6.67
2019-03-01T15:08:17.781Z,7.45
2019-03-01T15:10:47.752Z,7.37
2019-03-01T15:13:17.138Z,7.55
2019-03-01T15:15:46.298Z,9.33
2019-03-01T15:18:15.539Z,10.10
2019-03-01T15:20:44.785Z,10.58
2019-03-01T15:23:15.125Z,10.48
2019-03-01T15:25:47.466Z,12.30
2019-03-01T15:28:16.631Z,12.65
2019-03-01T15:30:47.287Z,11.83
2019-03-01T15:33:16.766Z,12.50
2019-03-01T15:35:45.999Z,12.73
2019-03-01T15:38:15.278Z,12.95
2019-03-01T15:40:45.522Z,12.20
2019-03-01T15:43:16.050Z,11.53
2019-03-01T15:45:45.696Z,11.88
2019-03-01T15:48:15.720Z,11.50
2019-03-01T15:50:45.281Z,10.95
2019-03-01T15:53:14.794Z,11.55
2019-03-01T15:55:43.948Z,10.85
2019-03-01T15:58:13.912Z,9.98
2019-03-01T16:00:43.576Z,9.53
2019-03-01T16:03:13.253Z,10.58
2019-03-01T16:05:43.994Z,10.30
2019-03-01T16:08:13.136Z,11.15
2019-03-01T16:10:42.360Z,11.75
2019-03-01T16:13:14.081Z,12.65
2019-03-01T16:15:43.114Z,12.98
2019-03-01T16:18:13.001Z,12.00
2019-03-01T16:20:42.245Z,10.90
2019-03-01T16:23:11.811Z,12.73
2019-03-01T16:25:40.987Z,14.25
2019-03-01T16:28:10.112Z,15.75
2019-03-01T16:30:39.669Z,18.82
2019-03-01T16:33:08.958Z,22.42
2019-03-01T16:35:38.919Z,25.88
2019-03-01T16:38:08.135Z,28.40
2019-03-01T16:40:37.437Z,28.92
2019-03-01T16:43:06.554Z,28.60
2019-03-01T16:45:36.320Z,29.32
2019-03-01T16:48:05.949Z,27.67
2019-03-01T16:50:35.575Z,28.73
2019-03-01T16:53:05.548Z,29.40
2019-03-01T16:55:38.705Z,30.02
2019-03-01T16:58:08.370Z,29.00
2019-03-01T17:00:39.429Z,30.48
2019-03-01T17:03:16.857Z,31.65
2019-03-01T17:05:43.436Z,31.85
2019-03-01T17:08:14.086Z,33.85
2019-03-01T17:10:46.226Z,29.85
2019-03-01T17:13:15.625Z,32.50
2019-03-01T17:15:48.453Z,32.58
2019-03-01T17:18:17.017Z,30.77
2019-03-01T17:20:47.711Z,31.57
2019-03-01T17:23:17.139Z,31.57
2019-03-01T17:25:47.679Z,34.73
2019-03-01T17:28:22.636Z,32.63
2019-03-01T17:30:50.772Z,32.63
2019-03-01T17:33:18.573Z,33.95
2019-03-01T17:35:47.730Z,37.25
2019-03-01T17:38:16.903Z,40.00
2019-03-01T17:40:46.105Z,40.92
2019-03-01T17:43:15.728Z,42.38
2019-03-01T17:45:45.105Z,40.52
2019-03-01T17:48:18.434Z,41.73
2019-03-01T17:50:48.088Z,42.65
2019-03-01T17:53:17.256Z,41.90
2019-03-01T17:55:46.404Z,44.45
2019-03-01T17:58:15.669Z,46.40
2019-03-01T18:00:47.777Z,51.90
2019-03-01T18:06:16.851Z,48.65
2019-03-01T18:08:49.996Z,47.58
2019-03-01T18:11:18.929Z,48.73
2019-03-01T18:13:51.443Z,49.00
2019-03-01T18:16:22.108Z,51.60
2019-03-01T18:18:52.963Z,55.73
2019-03-01T18:21:23.284Z,54.95
2019-03-01T18:23:52.503Z,56.75
2019-03-01T18:26:23.050Z,61.15
2019-03-01T18:28:52.435Z,60.28
2019-03-01T18:31:21.752Z,61.65
2019-03-01T18:33:53.798Z,57.20
2019-03-01T18:36:24.067Z,55.52
2019-03-01T18:38:53.283Z,61.00
2019-03-01T18:41:24.195Z,60.28
2019-03-01T18:43:53.306Z,56.15
2019-03-01T18:46:22.435Z,52.27
2019-03-01T18:48:51.677Z,59.60
2019-03-01T18:51:20.889Z,57.10
2019-03-01T18:53:50.128Z,56.33
2019-03-01T18:56:19.346Z,59.83
2019-03-01T18:58:48.971Z,59.27
2019-03-01T19:01:19.020Z,56.23
2019-03-01T19:03:50.325Z,53.23
2019-03-01T19:06:20.104Z,60.08
2019-03-01T19:08:49.324Z,55.48
2019-03-01T19:11:18.575Z,59.15
2019-03-01T19:13:47.768Z,59.42
2019-03-01T19:16:17.131Z,56.00
2019-03-01T19:18:48.220Z,57.45
2019-03-01T19:21:18.889Z,45.48
2019-03-01T19:23:48.104Z,42.88
2019-03-01T19:26:17.401Z,44.48
2019-03-01T19:28:46.631Z,34.65
2019-03-01T19:31:15.798Z,27.52
2019-03-01T19:33:45.003Z,26.52
2019-03-01T19:36:14.174Z,26.40
2019-03-01T19:38:43.314Z,26.97
2019-03-01T19:41:12.692Z,24.23
2019-03-01T19:43:45.706Z,24.87
2019-03-01T19:46:15.716Z,25.85
2019-03-01T19:48:43.733Z,25.77
2019-03-01T19:51:12.955Z,25.23
2019-03-01T19:54:11.328Z,23.55
2019-03-01T19:56:57.657Z,18.23
2019-03-01T19:59:25.540Z,19.85
2019-03-01T20:02:20.249Z,18.67
2019-03-01T20:05:27.936Z,20.08
2019-03-01T20:08:29.608Z,23.32
2019-03-01T20:11:26.653Z,21.42
2019-03-01T20:13:57.160Z,22.45
2019-03-01T20:16:26.428Z,24.27
2019-03-01T20:18:55.608Z,24.63
2019-03-01T20:21:24.794Z,27.00
2019-03-01T20:23:53.897Z,29.40
2019-03-01T20:26:23.460Z,32.58
2019-03-01T20:28:53.900Z,35.25
2019-03-01T20:31:23.053Z,33.55
2019-03-01T20:33:52.222Z,34.85
2019-03-01T20:36:21.415Z,35.13
2019-03-01T20:38:50.634Z,35.58
2019-03-01T20:41:19.783Z,43.35
2019-03-01T20:43:48.951Z,38.63
2019-03-01T20:46:18.097Z,35.58
2019-03-01T20:48:48.424Z,33.92
2019-03-01T20:51:17.678Z,36.35
2019-03-01T20:53:49.489Z,35.30
2019-03-01T20:56:17.756Z,37.70
2019-03-01T20:58:46.911Z,39.45
2019-03-01T21:01:16.063Z,40.33
2019-03-01T21:03:45.294Z,31.62
2019-03-01T21:06:14.476Z,33.80
2019-03-01T21:08:43.708Z,33.63
2019-03-01T21:11:12.930Z,29.32
2019-03-01T21:13:42.176Z,27.77
2019-03-01T21:16:11.328Z,26.30
2019-03-01T21:18:40.497Z,21.50
2019-03-01T21:21:09.706Z,24.37
2019-03-01T21:23:38.828Z,25.95
2019-03-01T21:26:08.010Z,21.97
2019-03-01T21:28:37.467Z,22.07
2019-03-01T21:31:06.893Z,20.35
2019-03-01T21:33:36.128Z,19.20
2019-03-01T21:36:05.584Z,19.62
2019-03-01T21:38:35.834Z,19.82
2019-03-01T21:41:06.388Z,19.62
2019-03-01T21:43:36.815Z,19.50
2019-03-01T21:46:06.138Z,19.87
2019-03-01T21:48:35.270Z,19.52
2019-03-01T21:51:04.442Z,20.72
2019-03-01T21:53:36.440Z,20.08
2019-03-01T21:56:06.135Z,21.57
2019-03-01T21:58:38.502Z,20.62
2019-03-01T22:01:07.015Z,23.32
2019-03-01T22:03:37.501Z,19.17
2019-03-01T22:06:06.825Z,22.45
2019-03-01T22:08:36.144Z,21.57
2019-03-01T22:11:05.509Z,21.45
2019-03-01T22:13:35.792Z,19.92
2019-03-01T22:16:05.929Z,21.82
2019-03-01T22:18:36.360Z,19.55
2019-03-01T22:21:05.816Z,21.85
2019-03-01T22:23:35.143Z,22.58
2019-03-01T22:26:04.448Z,21.15
2019-03-01T22:28:36.139Z,21.45
2019-03-01T22:31:04.717Z,24.05
2019-03-01T22:33:34.071Z,23.32
2019-03-01T22:36:03.407Z,29.35
2019-03-01T22:38:32.631Z,23.62
2019-03-01T22:41:03.917Z,25.97
2019-03-01T22:43:32.851Z,28.42
2019-03-01T22:46:02.167Z,26.93
2019-03-01T22:48:31.511Z,27.87
2019-03-01T22:51:00.896Z,24.95
2019-03-01T22:53:30.134Z,25.80
2019-03-01T22:55:59.410Z,28.98
2019-03-01T22:58:28.772Z,28.35
2019-03-01T23:01:00.554Z,27.85
2019-03-01T23:03:30.092Z,29.27
2019-03-01T23:05:59.433Z,27.75
2019-03-01T23:08:31.758Z,30.70
2019-03-01T23:10:59.724Z,27.55
2019-03-01T23:13:29.025Z,26.70
2019-03-01T23:15:58.356Z,27.25
2019-03-01T23:18:27.705Z,27.22
2019-03-01T23:20:57.701Z,28.12
2019-03-01T23:23:27.971Z,26.65
2019-03-01T23:25:57.312Z,26.20
2019-03-01T23:28:27.622Z,26.42
2019-03-01T23:30:56.969Z,26.40
2019-03-01T23:33:27.752Z,25.52
2019-03-01T23:35:58.335Z,26.48
2019-03-01T23:38:27.698Z,24.95
2019-03-01T23:40:57.997Z,22.87
2019-03-01T23:43:27.545Z,22.07
2019-03-01T23:45:58.288Z,22.85
2019-03-01T23:48:27.614Z,20.27
2019-03-01T23:50:56.937Z,21.20
2019-03-01T23:53:27.457Z,21.15
2019-03-01T23:55:57.951Z,20.57
2019-03-01T23:58:27.263Z,20.55
